Time;durP1;ratioP1;P1;durP2;ratioP2;P2;SDS_P1;SDS_P2;PMS_P1;PMS_P2;Temp;Humidity;BMP_temperature;BMP_pressure;BME280_temperature;BME280_humidity;BME280_pressure;Samples;Min_cycle;Max_cycle;Signal;HPM_P1;HPM_P2
2023/05/04 00:00:43;;;;;;;10.97;6.43;;;11.30;67.30;;;;;;5035347;28;20029;-78
2023/05/04 00:03:08;;;;;;;12.90;6.07;;;11.30;67.60;;;;;;5052210;28;20032;-78
2023/05/04 00:05:34;;;;;;;9.93;6.17;;;11.20;67.60;;;;;;5053289;28;20029;-78
2023/05/04 00:08:00;;;;;;;12.50;6.40;;;11.20;67.90;;;;;;5052144;28;20032;-77
2023/05/04 00:10:26;;;;;;;11.93;7.17;;;11.10;68.10;;;;;;5051985;28;20553;-77
2023/05/04 00:12:53;;;;;;;10.43;6.67;;;11.10;68.30;;;;;;5053226;28;20021;-78
2023/05/04 00:15:18;;;;;;;10.97;6.17;;;11.10;68.20;;;;;;5053101;28;20024;-78
2023/05/04 00:17:44;;;;;;;11.00;6.10;;;11.00;68.20;;;;;;5051897;28;20037;-77
2023/05/04 00:20:12;;;;;;;11.90;7.03;;;11.00;68.20;;;;;;5053140;28;20522;-78
2023/05/04 00:22:37;;;;;;;15.57;6.87;;;11.00;69.30;;;;;;5053090;28;20049;-78
2023/05/04 00:25:04;;;;;;;11.03;6.63;;;11.00;68.80;;;;;;5053090;28;20408;-78
2023/05/04 00:27:30;;;;;;;12.23;7.40;;;10.90;69.80;;;;;;5051776;28;20505;-78
2023/05/04 00:29:55;;;;;;;10.50;6.57;;;10.90;69.50;;;;;;5051232;28;20040;-78
2023/05/04 00:32:21;;;;;;;11.27;6.70;;;10.90;69.40;;;;;;5062689;28;20029;-78
2023/05/04 00:34:47;;;;;;;13.20;6.73;;;10.80;69.90;;;;;;5052037;28;20037;-78
2023/05/04 00:37:13;;;;;;;15.87;6.30;;;10.80;69.70;;;;;;5057770;28;20082;-76
2023/05/04 00:39:39;;;;;;;10.33;5.60;;;10.80;69.70;;;;;;5071429;28;20106;-77
2023/05/04 00:42:05;;;;;;;10.97;6.70;;;10.80;69.70;;;;;;5071398;28;20036;-80
2023/05/04 00:44:30;;;;;;;12.67;6.60;;;10.80;69.90;;;;;;5076264;28;20033;-81
2023/05/04 00:46:56;;;;;;;11.83;6.63;;;10.70;70.40;;;;;;5075745;28;20035;-80
2023/05/04 00:49:24;;;;;;;10.27;6.23;;;10.70;70.50;;;;;;5068088;28;20036;-81
2023/05/04 00:51:52;;;;;;;11.53;6.77;;;10.70;70.80;;;;;;5056945;28;20044;-80
2023/05/04 00:54:18;;;;;;;11.90;6.70;;;10.70;70.90;;;;;;5056715;28;20118;-82
2023/05/04 00:56:44;;;;;;;10.70;5.83;;;10.60;70.90;;;;;;5056907;28;20033;-81
2023/05/04 00:59:12;;;;;;;10.10;6.83;;;10.60;71.10;;;;;;5056816;28;20508;-82
2023/05/04 01:01:38;;;;;;;10.07;6.90;;;10.60;71.10;;;;;;5055649;28;20062;-81
2023/05/04 01:04:04;;;;;;;10.30;6.43;;;10.50;71.20;;;;;;5056703;28;20017;-82
2023/05/04 01:06:47;;;;;;;14.37;6.87;;;10.50;71.20;;;;;;5055921;28;20108;-81
2023/05/04 01:09:38;;;;;;;10.47;6.10;;;10.50;71.80;;;;;;5055361;28;20021;-81
2023/05/04 01:12:16;;;;;;;16.07;6.53;;;10.40;71.80;;;;;;5056487;28;20275;-81
2023/05/04 01:14:43;;;;;;;10.70;6.97;;;10.40;71.60;;;;;;5055714;28;20106;-81
2023/05/04 01:17:10;;;;;;;10.03;6.20;;;10.40;71.80;;;;;;5056907;28;20033;-83
2023/05/04 01:19:35;;;;;;;12.90;7.53;;;10.40;72.20;;;;;;5057208;28;20029;-82
2023/05/04 01:22:01;;;;;;;9.83;6.77;;;10.40;72.30;;;;;;5055213;28;20135;-81
2023/05/04 01:24:28;;;;;;;9.03;6.33;;;10.30;72.00;;;;;;5056368;28;20450;-81
2023/05/04 01:27:07;;;;;;;11.47;6.10;;;10.30;72.00;;;;;;5056435;28;20037;-82
2023/05/04 01:29:54;;;;;;;10.73;6.63;;;10.30;72.10;;;;;;5056398;28;20060;-81
2023/05/04 01:32:21;;;;;;;12.33;6.83;;;10.20;72.60;;;;;;5056466;28;20025;-82
2023/05/04 01:34:47;;;;;;;12.27;6.37;;;10.20;72.40;;;;;;5055133;28;20033;-81
2023/05/04 01:37:12;;;;;;;11.30;7.10;;;10.20;72.40;;;;;;5055130;28;20492;-82
2023/05/04 01:39:38;;;;;;;9.30;6.27;;;10.10;73.30;;;;;;5056012;28;20049;-83
2023/05/04 01:42:06;;;;;;;10.13;6.47;;;10.10;73.50;;;;;;5056187;28;20044;-81
2023/05/04 01:44:32;;;;;;;11.00;6.30;;;10.10;72.80;;;;;;5054923;28;20485;-80
2023/05/04 01:46:57;;;;;;;9.83;6.07;;;10.10;72.70;;;;;;5038199;28;20024;-82
2023/05/04 01:49:23;;;;;;;10.67;6.73;;;10.10;73.10;;;;;;5054830;28;20421;-81
2023/05/04 01:51:49;;;;;;;10.07;6.50;;;10.10;73.50;;;;;;5054776;28;20033;-81
2023/05/04 01:54:15;;;;;;;10.93;5.53;;;10.00;73.10;;;;;;5053707;28;20397;-82
2023/05/04 01:56:40;;;;;;;9.90;5.50;;;10.00;73.30;;;;;;5054228;28;20021;-81
2023/05/04 01:59:06;;;;;;;10.83;6.87;;;10.00;73.50;;;;;;5055460;28;20039;-80
2023/05/04 02:01:32;;;;;;;12.43;7.07;;;9.90;73.50;;;;;;5055813;28;20087;-81
2023/05/04 02:03:58;;;;;;;12.97;7.30;;;9.90;73.90;;;;;;5058229;28;20393;-82
2023/05/04 02:06:23;;;;;;;13.33;6.73;;;9.90;73.70;;;;;;5068154;28;20115;-81
2023/05/04 02:08:50;;;;;;;11.63;6.07;;;9.80;73.70;;;;;;5055446;28;20040;-81
2023/05/04 02:11:15;;;;;;;12.70;7.77;;;9.90;74.10;;;;;;5070673;28;20106;-81
2023/05/04 02:13:41;;;;;;;12.70;6.13;;;9.80;74.00;;;;;;5055451;28;20072;-82
2023/05/04 02:16:07;;;;;;;12.60;6.70;;;9.80;74.10;;;;;;5055366;28;20036;-81
2023/05/04 02:18:32;;;;;;;11.57;6.60;;;9.80;74.20;;;;;;5055287;28;20036;-81
2023/05/04 02:20:58;;;;;;;9.43;5.87;;;9.80;73.90;;;;;;5053911;28;20033;-80
2023/05/04 02:23:24;;;;;;;9.60;6.13;;;9.80;74.10;;;;;;5055154;28;20123;-81
2023/05/04 02:25:50;;;;;;;11.30;7.03;;;9.70;74.10;;;;;;5072737;28;20035;-81
2023/05/04 02:28:16;;;;;;;17.77;6.73;;;9.70;74.60;;;;;;5066203;28;20103;-81
2023/05/04 02:30:41;;;;;;;10.00;6.20;;;9.70;74.40;;;;;;5053699;28;20112;-81
2023/05/04 02:33:07;;;;;;;10.87;5.77;;;9.70;74.80;;;;;;5053665;28;20504;-81
2023/05/04 02:35:33;;;;;;;12.70;8.03;;;9.70;74.90;;;;;;5057884;28;20036;-82
2023/05/04 02:37:58;;;;;;;10.87;6.00;;;9.70;74.80;;;;;;5053550;28;20052;-81
2023/05/04 02:40:24;;;;;;;9.33;5.90;;;9.70;74.70;;;;;;5053454;28;20033;-81
2023/05/04 02:42:50;;;;;;;12.27;6.30;;;9.70;74.80;;;;;;5055092;28;20458;-81
2023/05/04 02:45:15;;;;;;;12.30;6.97;;;9.70;74.60;;;;;;5053792;28;20025;-81
2023/05/04 02:47:41;;;;;;;11.80;6.23;;;9.70;75.30;;;;;;5055554;28;20059;-81
2023/05/04 02:50:07;;;;;;;14.13;7.00;;;9.70;75.30;;;;;;5054916;28;20381;-82
2023/05/04 02:52:33;;;;;;;11.70;6.27;;;9.60;75.30;;;;;;5055345;28;20029;-81
2023/05/04 02:54:59;;;;;;;14.53;7.33;;;9.60;75.30;;;;;;5055008;28;20076;-81
2023/05/04 02:57:25;;;;;;;10.87;6.33;;;9.60;75.30;;;;;;5054626;28;20482;-81
2023/05/04 02:59:51;;;;;;;11.23;6.77;;;9.60;75.20;;;;;;5054824;28;20037;-82
2023/05/04 03:02:16;;;;;;;10.80;6.37;;;9.60;75.30;;;;;;5053288;28;20123;-82
2023/05/04 03:04:42;;;;;;;15.50;6.77;;;9.50;75.20;;;;;;5036968;28;20056;-81
2023/05/04 03:07:08;;;;;;;17.43;7.13;;;9.50;75.30;;;;;;5054104;28;20103;-80
2023/05/04 03:09:33;;;;;;;11.90;6.27;;;9.40;75.40;;;;;;5054687;28;20469;-82
2023/05/04 03:12:00;;;;;;;10.70;6.00;;;9.40;75.40;;;;;;5053385;28;20055;-81
2023/05/04 03:14:26;;;;;;;10.90;5.60;;;9.30;75.80;;;;;;5054416;28;20389;-81
2023/05/04 03:16:51;;;;;;;11.27;6.73;;;9.40;75.60;;;;;;5054419;28;20033;-81
2023/05/04 03:19:17;;;;;;;9.37;6.57;;;9.40;75.80;;;;;;5053022;28;20029;-81
2023/05/04 03:21:45;;;;;;;12.40;6.97;;;9.30;75.70;;;;;;5054460;28;20076;-82
2023/05/04 03:24:11;;;;;;;11.23;6.47;;;9.30;76.00;;;;;;5054184;28;20059;-80
2023/05/04 03:26:36;;;;;;;10.87;6.53;;;9.30;75.90;;;;;;5053017;28;20056;-81
2023/05/04 03:29:02;;;;;;;11.13;7.23;;;9.30;76.00;;;;;;5052872;28;20029;-82
2023/05/04 03:31:27;;;;;;;12.23;6.57;;;9.20;75.80;;;;;;5052872;28;20024;-81
2023/05/04 03:33:53;;;;;;;11.77;6.93;;;9.20;76.00;;;;;;5036489;28;20033;-81
2023/05/04 03:36:19;;;;;;;11.33;5.93;;;9.20;76.30;;;;;;5052746;28;20017;-81
2023/05/04 03:38:45;;;;;;;13.00;6.83;;;9.20;76.10;;;;;;5052578;28;20128;-82
2023/05/04 03:41:11;;;;;;;11.07;6.70;;;9.10;76.50;;;;;;5052505;28;20037;-82
2023/05/04 03:43:37;;;;;;;13.60;6.50;;;9.10;76.60;;;;;;5053973;28;20021;-82
2023/05/04 03:46:03;;;;;;;11.20;7.13;;;9.10;76.40;;;;;;5054112;28;20488;-81
2023/05/04 03:48:29;;;;;;;13.47;6.90;;;9.10;76.80;;;;;;5053634;28;20052;-81
2023/05/04 03:50:54;;;;;;;10.93;6.57;;;9.00;76.80;;;;;;5053911;28;20537;-81
2023/05/04 03:53:20;;;;;;;9.33;6.90;;;9.00;76.60;;;;;;5053693;28;20037;-80
2023/05/04 03:55:46;;;;;;;12.27;6.50;;;9.00;77.30;;;;;;5052633;28;20120;-81
2023/05/04 03:58:11;;;;;;;12.73;6.40;;;9.00;76.90;;;;;;5053514;28;20059;-81
2023/05/04 04:00:37;;;;;;;10.33;5.97;;;8.90;76.70;;;;;;5052247;28;20083;-81
2023/05/04 04:03:03;;;;;;;13.60;7.07;;;8.90;77.00;;;;;;5053755;28;20367;-81
2023/05/04 04:05:28;;;;;;;12.60;8.03;;;8.90;76.90;;;;;;5053624;28;20074;-80
2023/05/04 04:07:54;;;;;;;10.80;6.70;;;8.90;76.90;;;;;;5053555;28;20033;-81
2023/05/04 04:10:19;;;;;;;11.43;7.00;;;8.90;76.80;;;;;;5052258;28;20040;-80
2023/05/04 04:12:45;;;;;;;11.33;6.83;;;8.90;77.00;;;;;;5052091;28;20603;-81
2023/05/04 04:15:11;;;;;;;11.50;6.30;;;8.90;77.10;;;;;;5053366;28;20033;-82
2023/05/04 04:17:37;;;;;;;13.10;7.90;;;8.80;77.20;;;;;;5055675;28;20085;-80
2023/05/04 04:20:02;;;;;;;12.00;6.70;;;8.80;77.40;;;;;;5064140;28;20112;-81
2023/05/04 04:22:28;;;;;;;11.10;6.60;;;8.90;77.70;;;;;;5053341;28;20104;-81
2023/05/04 04:24:54;;;;;;;10.60;6.87;;;8.80;77.50;;;;;;5051927;28;20017;-81
2023/05/04 04:27:20;;;;;;;11.43;7.20;;;8.80;77.60;;;;;;5053285;28;20025;-81
2023/05/04 04:29:45;;;;;;;15.23;7.67;;;8.80;77.70;;;;;;5053247;28;20044;-81
2023/05/04 04:32:11;;;;;;;12.50;7.63;;;8.80;77.80;;;;;;5053187;28;20065;-80
2023/05/04 04:34:37;;;;;;;10.43;7.17;;;8.80;77.80;;;;;;5053436;28;20029;-80
2023/05/04 04:37:03;;;;;;;11.67;7.30;;;8.90;78.10;;;;;;5053348;28;20036;-80
2023/05/04 04:39:28;;;;;;;16.70;7.40;;;8.80;78.00;;;;;;5068449;28;20505;-81
2023/05/04 04:41:54;;;;;;;13.53;7.87;;;8.90;78.10;;;;;;5053047;28;20106;-80
2023/05/04 04:44:20;;;;;;;10.97;6.80;;;8.90;78.10;;;;;;5068569;28;20487;-80
2023/05/04 04:46:46;;;;;;;11.23;7.07;;;8.90;78.30;;;;;;5068423;28;20109;-80
2023/05/04 04:49:11;;;;;;;12.20;7.37;;;8.90;78.10;;;;;;5053349;28;20064;-82
2023/05/04 04:51:39;;;;;;;13.70;7.40;;;8.90;78.30;;;;;;5053046;28;20394;-81
2023/05/04 04:54:05;;;;;;;14.67;7.73;;;8.90;78.60;;;;;;5067879;28;20053;-81
2023/05/04 04:56:31;;;;;;;11.00;6.60;;;9.00;78.40;;;;;;5052831;28;20036;-81
2023/05/04 04:58:56;;;;;;;12.97;7.00;;;9.00;78.30;;;;;;5052889;28;20108;-80
2023/05/04 05:01:23;;;;;;;12.90;7.20;;;9.00;78.30;;;;;;5052913;28;20083;-81
2023/05/04 05:03:49;;;;;;;12.90;7.40;;;9.10;78.40;;;;;;5052985;28;20021;-80
2023/05/04 05:06:15;;;;;;;14.63;7.00;;;9.10;78.40;;;;;;5068232;28;20358;-79
2023/05/04 05:08:42;;;;;;;10.87;6.60;;;9.10;78.20;;;;;;5052996;28;20029;-79
2023/05/04 05:11:08;;;;;;;10.93;7.10;;;9.20;78.40;;;;;;5058195;28;20112;-80
2023/05/04 05:13:34;;;;;;;11.47;7.07;;;9.20;78.40;;;;;;5062697;28;20060;-80
2023/05/04 05:16:00;;;;;;;13.37;8.40;;;9.30;78.30;;;;;;5059937;28;20466;-80
2023/05/04 05:18:26;;;;;;;11.97;6.70;;;9.30;78.70;;;;;;5086004;28;20024;-80
2023/05/04 05:20:55;;;;;;;13.40;7.80;;;9.30;78.30;;;;;;5066045;28;20427;-80
2023/05/04 05:23:21;;;;;;;14.97;7.57;;;9.30;78.50;;;;;;5056513;28;20056;-80
2023/05/04 05:25:46;;;;;;;13.27;6.97;;;9.40;78.40;;;;;;5049706;28;20064;-80
2023/05/04 05:28:13;;;;;;;12.13;6.80;;;9.40;78.20;;;;;;5058788;28;20101;-80
2023/05/04 05:30:38;;;;;;;10.73;6.97;;;9.50;78.10;;;;;;5075812;28;20507;-80
2023/05/04 05:33:05;;;;;;;11.33;7.17;;;9.50;78.30;;;;;;5072402;28;20053;-81
2023/05/04 05:35:31;;;;;;;13.30;7.57;;;9.60;78.10;;;;;;5071582;28;20167;-80
2023/05/04 05:37:57;;;;;;;13.50;6.57;;;9.60;78.00;;;;;;5072254;28;20068;-80
2023/05/04 05:40:23;;;;;;;10.60;6.93;;;9.60;77.90;;;;;;5075478;28;20036;-80
2023/05/04 05:42:49;;;;;;;13.10;6.77;;;9.70;77.90;;;;;;5074235;28;20021;-80
2023/05/04 05:45:14;;;;;;;9.10;6.37;;;9.70;77.90;;;;;;5075365;28;20028;-80
2023/05/04 05:47:40;;;;;;;13.40;6.77;;;9.70;77.90;;;;;;5074216;28;20035;-80
2023/05/04 05:50:06;;;;;;;12.80;7.23;;;9.80;77.90;;;;;;5075338;28;20025;-80
2023/05/04 05:52:32;;;;;;;12.93;7.03;;;9.80;77.80;;;;;;5075303;28;20027;-82
2023/05/04 05:54:57;;;;;;;12.50;7.00;;;9.90;77.90;;;;;;5075475;28;20104;-80
2023/05/04 05:57:23;;;;;;;10.03;6.67;;;9.90;77.80;;;;;;5073053;28;20050;-80
2023/05/04 05:59:49;;;;;;;10.90;6.20;;;9.90;77.70;;;;;;5075704;28;20375;-80
2023/05/04 06:02:15;;;;;;;11.13;6.00;;;10.00;77.70;;;;;;5075446;28;20082;-80
2023/05/04 06:04:46;;;;;;;13.23;6.50;;;10.00;77.70;;;;;;5075509;28;20244;-81
2023/05/04 06:07:14;;;;;;;11.13;6.73;;;10.00;77.70;;;;;;5058314;28;20021;-80
2023/05/04 06:09:40;;;;;;;11.20;6.10;;;10.10;77.80;;;;;;5075816;28;20055;-80
2023/05/04 06:12:11;;;;;;;11.23;6.73;;;10.20;77.90;;;;;;5073941;28;20058;-81
2023/05/04 06:14:37;;;;;;;10.47;6.43;;;10.30;77.90;;;;;;5058103;28;20028;-80
2023/05/04 06:17:02;;;;;;;10.90;5.87;;;10.30;77.90;;;;;;5075429;28;20381;-80
2023/05/04 06:19:28;;;;;;;11.70;6.43;;;10.40;77.90;;;;;;5057521;28;20036;-80
2023/05/04 06:21:54;;;;;;;9.77;5.87;;;10.40;77.80;;;;;;5057287;28;20052;-80
2023/05/04 06:24:21;;;;;;;10.33;6.37;;;10.50;77.80;;;;;;5075484;28;20021;-80
2023/05/04 06:26:47;;;;;;;9.67;5.43;;;10.60;77.80;;;;;;5057595;28;20024;-81
2023/05/04 06:29:13;;;;;;;12.83;6.97;;;10.70;77.70;;;;;;5075241;28;20481;-81
2023/05/04 06:31:40;;;;;;;15.27;6.37;;;10.70;77.60;;;;;;5073991;28;20050;-80
2023/05/04 06:34:06;;;;;;;9.10;6.00;;;10.80;77.50;;;;;;5073826;28;20112;-80
2023/05/04 06:36:31;;;;;;;8.97;6.27;;;10.80;77.50;;;;;;5074941;28;20165;-81
2023/05/04 06:38:57;;;;;;;9.98;6.32;;;10.90;77.40;;;;;;5073413;28;20055;-80
2023/05/04 06:41:23;;;;;;;9.85;6.25;;;11.00;77.20;;;;;;5074110;28;20483;-80
2023/05/04 06:43:49;;;;;;;11.20;5.57;;;11.10;77.20;;;;;;5073802;28;20104;-80
2023/05/04 06:46:15;;;;;;;8.35;5.53;;;11.20;77.00;;;;;;5075708;28;20048;-80
2023/05/04 06:48:41;;;;;;;9.90;6.00;;;11.20;76.80;;;;;;5073744;28;20050;-80
2023/05/04 06:51:06;;;;;;;9.55;5.65;;;11.30;76.70;;;;;;5074846;28;20024;-80
2023/05/04 06:53:32;;;;;;;10.70;5.75;;;11.40;76.50;;;;;;5073548;28;20437;-80
2023/05/04 06:55:58;;;;;;;12.13;5.38;;;11.50;76.40;;;;;;5074724;28;20028;-80
2023/05/04 06:58:24;;;;;;;10.70;5.55;;;11.60;76.30;;;;;;5074428;28;20047;-81
2023/05/04 07:00:50;;;;;;;10.20;5.72;;;11.60;76.10;;;;;;5074493;28;20039;-81
2023/05/04 07:03:16;;;;;;;9.55;5.78;;;11.70;76.00;;;;;;5073251;28;20388;-81
2023/05/04 07:05:44;;;;;;;9.95;5.47;;;11.80;75.90;;;;;;5074524;28;20025;-81
2023/05/04 07:08:10;;;;;;;9.45;5.97;;;11.80;75.70;;;;;;5073239;28;20021;-81
2023/05/04 07:10:36;;;;;;;10.82;5.50;;;12.00;75.50;;;;;;5074433;28;20028;-82
2023/05/04 07:13:02;;;;;;;9.48;5.18;;;12.00;75.40;;;;;;5074419;28;20039;-81
2023/05/04 07:15:28;;;;;;;6.85;4.60;;;12.10;75.20;;;;;;5074607;28;20025;-81
2023/05/04 07:17:53;;;;;;;8.73;5.65;;;12.20;75.10;;;;;;5072980;28;20108;-81
2023/05/04 07:20:20;;;;;;;9.70;5.82;;;12.20;74.90;;;;;;5074069;28;20035;-81
2023/05/04 07:22:46;;;;;;;9.27;5.00;;;12.20;74.80;;;;;;5074213;28;20159;-81
2023/05/04 07:25:12;;;;;;;8.35;5.03;;;12.30;74.60;;;;;;5074094;28;20507;-81
2023/05/04 07:27:38;;;;;;;9.57;5.32;;;12.30;74.40;;;;;;5073999;28;20094;-81
2023/05/04 07:30:07;;;;;;;10.00;4.80;;;12.40;74.30;;;;;;5056389;28;20111;-81
2023/05/04 07:32:32;;;;;;;7.82;4.82;;;12.50;74.20;;;;;;5074058;28;20024;-82
2023/05/04 07:34:58;;;;;;;9.23;4.88;;;12.50;74.10;;;;;;5056395;28;20149;-81
2023/05/04 07:37:24;;;;;;;8.40;5.50;;;12.50;73.90;;;;;;5072661;28;20392;-81
2023/05/04 07:39:49;;;;;;;8.48;4.85;;;12.60;73.90;;;;;;5073831;28;20737;-81
2023/05/04 07:42:15;;;;;;;7.75;4.70;;;12.60;73.80;;;;;;5073755;28;20053;-82
2023/05/04 07:44:41;;;;;;;9.07;5.65;;;12.70;73.80;;;;;;5072503;28;20048;-81
2023/05/04 07:47:07;;;;;;;8.52;5.63;;;12.80;73.70;;;;;;5072495;28;20472;-81
2023/05/04 07:49:32;;;;;;;7.60;5.00;;;12.80;73.50;;;;;;5073631;28;20503;-81
2023/05/04 07:51:58;;;;;;;7.53;5.03;;;12.90;73.50;;;;;;5073511;28;20029;-81
2023/05/04 07:54:24;;;;;;;8.10;4.75;;;13.00;73.40;;;;;;5073761;28;20025;-81
2023/05/04 07:56:50;;;;;;;8.45;5.63;;;13.00;73.20;;;;;;5072392;28;20499;-81
2023/05/04 07:59:18;;;;;;;8.60;5.68;;;13.10;73.20;;;;;;5073749;28;20028;-81
2023/05/04 08:01:45;;;;;;;12.13;5.80;;;13.20;73.10;;;;;;5072322;28;20434;-81
2023/05/04 08:04:10;;;;;;;12.80;5.65;;;13.30;73.00;;;;;;5073338;28;20036;-82
2023/05/04 08:06:38;;;;;;;10.48;5.15;;;13.30;72.90;;;;;;5055429;28;20028;-81
2023/05/04 08:09:05;;;;;;;8.75;4.95;;;13.40;72.80;;;;;;5073453;28;20017;-81
2023/05/04 08:11:33;;;;;;;10.00;5.78;;;13.50;72.70;;;;;;5073524;28;20056;-81
2023/05/04 08:13:59;;;;;;;8.32;5.60;;;13.60;72.70;;;;;;5073397;28;20369;-81
2023/05/04 08:16:26;;;;;;;11.68;4.55;;;13.60;72.60;;;;;;5072049;28;20024;-82
2023/05/04 08:18:55;;;;;;;6.72;4.57;;;13.70;72.60;;;;;;5054376;28;20024;-82
2023/05/04 08:21:21;;;;;;;11.73;5.45;;;13.80;72.60;;;;;;5071841;28;20115;-82
2023/05/04 08:23:47;;;;;;;9.32;4.53;;;13.80;72.30;;;;;;5071431;28;20104;-81
2023/05/04 08:26:13;;;;;;;8.85;4.80;;;13.90;72.20;;;;;;5071830;28;20468;-82
2023/05/04 08:28:41;;;;;;;8.82;4.70;;;14.00;71.90;;;;;;5071804;28;20024;-81
2023/05/04 08:31:07;;;;;;;9.63;4.43;;;14.10;71.70;;;;;;5071835;28;20048;-81
2023/05/04 08:33:33;;;;;;;8.23;4.43;;;14.20;71.70;;;;;;5054099;28;20441;-81
2023/05/04 08:35:59;;;;;;;6.75;4.07;;;14.30;71.50;;;;;;5068573;28;20029;-81
2023/05/04 08:38:25;;;;;;;5.95;3.65;;;14.40;71.30;;;;;;5051333;28;20116;-82
2023/05/04 08:40:51;;;;;;;8.27;4.03;;;14.50;71.20;;;;;;5051749;28;20133;-82
2023/05/04 08:43:17;;;;;;;6.43;3.28;;;14.60;71.00;;;;;;5053107;28;20108;-81
2023/05/04 08:45:42;;;;;;;8.43;4.47;;;14.70;70.90;;;;;;5053066;28;20025;-81
2023/05/04 08:48:09;;;;;;;10.02;4.68;;;14.80;70.70;;;;;;5051712;28;20512;-81
2023/05/04 08:50:36;;;;;;;7.60;4.18;;;14.90;70.50;;;;;;5053026;28;20056;-82
2023/05/04 08:53:05;;;;;;;7.45;4.07;;;15.00;70.30;;;;;;5051737;28;20033;-80
2023/05/04 08:55:34;;;;;;;9.13;4.15;;;15.10;70.10;;;;;;5052951;28;20021;-81
2023/05/04 08:58:03;;;;;;;9.52;3.80;;;15.20;69.80;;;;;;5052925;28;20029;-81
2023/05/04 09:00:29;;;;;;;9.27;3.67;;;15.30;69.50;;;;;;5051525;28;20425;-82
2023/05/04 09:02:58;;;;;;;6.32;3.40;;;15.40;69.40;;;;;;5051856;28;20021;-81
2023/05/04 09:05:27;;;;;;;6.82;3.13;;;15.50;69.20;;;;;;5054847;28;20029;-82
2023/05/04 09:07:52;;;;;;;6.35;3.38;;;15.60;68.90;;;;;;5039837;28;20029;-82
2023/05/04 09:10:19;;;;;;;6.20;3.17;;;15.70;68.50;;;;;;5057109;28;20033;-82
2023/05/04 09:12:45;;;;;;;9.68;3.30;;;15.80;68.30;;;;;;5056675;28;20117;-81
2023/05/04 09:15:18;;;;;;;8.02;3.75;;;15.90;68.00;;;;;;5056971;28;20053;-81
2023/05/04 09:18:04;;;;;;;10.07;3.50;;;16.00;67.70;;;;;;5055205;28;20477;-81
2023/05/04 09:20:30;;;;;;;7.47;3.22;;;16.10;67.50;;;;;;5056805;28;20028;-81
2023/05/04 09:23:06;;;;;;;5.57;3.40;;;16.20;67.40;;;;;;5056415;28;20108;-81
2023/05/04 09:25:53;;;;;;;7.75;3.55;;;16.30;67.30;;;;;;5055328;28;20019;-78
2023/05/04 09:28:20;;;;;;;6.18;3.47;;;16.40;66.90;;;;;;5054922;28;20028;-82
2023/05/04 09:30:47;;;;;;;7.65;3.33;;;16.50;66.80;;;;;;5038438;28;20025;-82
2023/05/04 09:33:14;;;;;;;5.97;3.28;;;16.60;66.50;;;;;;5056387;28;20500;-83
2023/05/04 09:35:41;;;;;;;7.30;3.42;;;16.70;66.40;;;;;;5055043;28;20025;-82
2023/05/04 09:38:08;;;;;;;8.27;3.22;;;16.70;66.10;;;;;;5055061;28;20025;-82
2023/05/04 09:40:40;;;;;;;8.20;3.97;;;16.80;66.00;;;;;;5054720;28;20041;-82
2023/05/04 09:43:07;;;;;;;6.38;3.08;;;16.90;65.80;;;;;;5055142;28;20029;-82
2023/05/04 09:45:44;;;;;;;7.88;3.40;;;17.00;65.80;;;;;;5055444;28;20079;-82
2023/05/04 09:48:25;;;;;;;7.97;3.50;;;17.10;65.60;;;;;;5056211;28;20112;-84
2023/05/04 09:50:56;;;;;;;6.18;3.53;;;17.20;65.50;;;;;;5056295;28;20036;-81
2023/05/04 09:53:26;;;;;;;6.18;3.28;;;17.20;65.30;;;;;;5056115;28;20064;-83
2023/05/04 09:55:58;;;;;;;9.27;3.85;;;17.30;65.30;;;;;;5055975;28;20029;-80
2023/05/04 09:58:24;;;;;;;8.30;3.67;;;17.40;65.20;;;;;;5054435;28;20035;-79
2023/05/04 10:00:52;;;;;;;6.82;3.33;;;17.40;65.10;;;;;;5054924;28;20029;-79
2023/05/04 10:03:19;;;;;;;5.47;3.38;;;17.50;64.90;;;;;;5056073;28;20028;-79
2023/05/04 10:05:47;;;;;;;7.35;3.67;;;17.60;64.80;;;;;;5055883;28;20029;-79
2023/05/04 10:08:13;;;;;;;7.20;3.25;;;17.60;64.60;;;;;;5054403;28;20460;-79
2023/05/04 10:10:39;;;;;;;9.80;4.18;;;17.70;64.40;;;;;;5037872;28;20392;-79
2023/05/04 10:13:05;;;;;;;7.53;3.20;;;17.80;64.40;;;;;;5054311;28;20025;-80
2023/05/04 10:15:31;;;;;;;5.78;2.85;;;17.90;64.30;;;;;;5054424;28;20025;-79
2023/05/04 10:18:20;;;;;;;9.00;3.42;;;18.00;64.20;;;;;;5055569;28;20017;-78
2023/05/04 10:21:16;;;;;;;7.40;3.45;;;18.00;64.10;;;;;;5054309;28;20028;-80
2023/05/04 10:24:11;;;;;;;9.10;3.20;;;18.20;63.80;;;;;;5055368;28;20384;-79
2023/05/04 10:27:15;;;;;;;6.20;3.38;;;18.30;63.40;;;;;;5055329;28;20025;-80
2023/05/04 10:29:41;;;;;;;6.03;2.40;;;18.60;63.00;;;;;;5054018;28;20389;-81
2023/05/04 10:32:20;;;;;;;5.40;2.67;;;18.80;62.90;;;;;;5054201;28;20029;-80
2023/05/04 10:34:47;;;;;;;9.82;2.88;;;19.00;62.30;;;;;;5055101;28;20033;-80
2023/05/04 10:37:18;;;;;;;8.48;2.95;;;19.20;62.00;;;;;;5054228;28;20036;-81
2023/05/04 10:39:53;;;;;;;6.78;3.15;;;19.40;61.40;;;;;;5054961;28;20075;-80
2023/05/04 10:42:20;;;;;;;5.65;2.78;;;19.60;61.00;;;;;;5037189;28;20032;-81
2023/05/04 10:44:49;;;;;;;5.80;2.28;;;19.80;60.70;;;;;;5053934;28;20025;-82
2023/05/04 10:47:14;;;;;;;6.93;2.50;;;20.00;60.50;;;;;;5053755;28;20470;-80
2023/05/04 10:49:40;;;;;;;5.20;2.58;;;20.20;60.20;;;;;;5054034;28;20029;-81
2023/05/04 10:52:10;;;;;;;5.55;2.17;;;20.40;59.80;;;;;;5037058;28;20048;-81
2023/05/04 10:54:37;;;;;;;4.45;2.33;;;20.60;59.50;;;;;;5053481;28;20338;-81
2023/05/04 10:57:11;;;;;;;7.72;2.90;;;20.80;59.10;;;;;;5053542;28;20025;-80
2023/05/04 10:59:38;;;;;;;4.25;2.17;;;21.00;58.70;;;;;;5054891;28;20087;-80
2023/05/04 11:02:05;;;;;;;7.70;2.50;;;21.20;58.40;;;;;;5053777;28;20056;-81
2023/05/04 11:04:31;;;;;;;4.47;2.22;;;21.40;57.90;;;;;;5053203;28;20029;-81
2023/05/04 11:07:05;;;;;;;6.43;2.33;;;21.70;57.40;;;;;;5053405;28;20475;-80
2023/05/04 11:09:40;;;;;;;6.60;3.03;;;21.90;56.70;;;;;;5054618;28;20367;-81
2023/05/04 11:12:09;;;;;;;6.00;2.33;;;22.20;56.10;;;;;;5053383;28;20029;-79
2023/05/04 11:14:40;;;;;;;8.75;2.75;;;22.40;55.70;;;;;;5037081;28;20062;-79
2023/05/04 11:17:12;;;;;;;5.68;2.67;;;22.60;55.20;;;;;;5044160;28;20040;-81
2023/05/04 11:19:51;;;;;;;6.82;2.60;;;22.70;54.90;;;;;;5052789;28;20060;-81
2023/05/04 11:22:17;;;;;;;6.88;2.78;;;22.90;54.00;;;;;;5053872;28;20025;-81
2023/05/04 11:24:45;;;;;;;5.35;2.63;;;23.20;53.90;;;;;;5052847;28;20500;-80
2023/05/04 11:27:40;;;;;;;7.43;2.22;;;23.40;53.20;;;;;;5035939;28;20112;-80
2023/05/04 11:30:07;;;;;;;4.70;2.17;;;23.60;52.20;;;;;;5037077;28;20123;-82
2023/05/04 11:32:45;;;;;;;9.50;3.03;;;23.80;52.40;;;;;;5052739;28;20108;-80
2023/05/04 11:35:18;;;;;;;6.43;2.53;;;24.00;51.60;;;;;;5052750;28;20044;-80
2023/05/04 11:37:45;;;;;;;4.95;2.22;;;24.20;50.90;;;;;;5036217;28;20112;-82
2023/05/04 11:40:25;;;;;;;6.55;2.35;;;24.40;50.50;;;;;;5052383;28;20044;-80
2023/05/04 11:42:52;;;;;;;5.35;2.45;;;24.60;49.50;;;;;;5052609;28;20079;-80
2023/05/04 11:45:28;;;;;;;5.07;2.55;;;24.80;49.50;;;;;;5053691;28;20037;-82
2023/05/04 11:47:57;;;;;;;7.60;2.80;;;24.90;48.90;;;;;;5053766;28;20017;-80
2023/05/04 11:50:24;;;;;;;7.05;2.63;;;25.00;48.70;;;;;;5052353;28;20051;-81
2023/05/04 11:52:50;;;;;;;8.18;2.50;;;25.20;48.60;;;;;;5052333;28;20378;-81
2023/05/04 11:55:27;;;;;;;5.22;2.63;;;25.40;48.40;;;;;;5052295;28;20017;-81
2023/05/04 11:58:09;;;;;;;6.18;2.40;;;25.50;47.80;;;;;;5052125;28;20025;-79
2023/05/04 12:00:43;;;;;;;5.22;2.78;;;25.70;47.40;;;;;;5051945;28;20021;-80
2023/05/04 12:03:16;;;;;;;6.47;2.67;;;25.80;47.00;;;;;;5053357;28;20070;-81
2023/05/04 12:05:49;;;;;;;4.00;2.42;;;26.00;46.70;;;;;;5052191;28;20017;-80
2023/05/04 12:08:30;;;;;;;5.75;3.20;;;26.20;46.40;;;;;;5052097;28;20062;-83
2023/05/04 12:11:15;;;;;;;7.68;2.72;;;26.30;45.60;;;;;;5052307;28;20021;-81
2023/05/04 12:13:44;;;;;;;8.88;3.13;;;26.40;45.40;;;;;;5052241;28;20432;-77
2023/05/04 12:16:18;;;;;;;7.28;3.25;;;26.60;45.50;;;;;;5053280;28;20111;-80
2023/05/04 12:18:45;;;;;;;6.35;3.03;;;26.70;44.90;;;;;;5055799;28;20124;-76
2023/05/04 12:21:11;;;;;;;5.35;3.03;;;26.80;44.80;;;;;;5065864;28;20485;-79
2023/05/04 12:23:38;;;;;;;5.45;2.70;;;26.90;44.40;;;;;;5069973;28;20111;-79
2023/05/04 12:26:04;;;;;;;4.80;2.67;;;27.10;44.20;;;;;;5071945;28;20306;-79
2023/05/04 12:28:30;;;;;;;5.40;2.65;;;27.40;43.90;;;;;;5053530;28;20032;-79
2023/05/04 12:30:56;;;;;;;4.25;2.53;;;27.50;43.60;;;;;;5073034;28;20058;-79
2023/05/04 12:33:22;;;;;;;6.75;3.28;;;27.70;43.50;;;;;;5073026;28;20035;-79
2023/05/04 12:35:48;;;;;;;6.18;3.10;;;27.80;43.40;;;;;;5070908;28;20541;-79
2023/05/04 12:38:14;;;;;;;6.45;2.80;;;28.10;43.30;;;;;;5071258;28;20166;-78
2023/05/04 12:40:41;;;;;;;4.80;2.17;;;28.30;43.10;;;;;;5071027;28;20059;-80
2023/05/04 12:43:07;;;;;;;4.95;2.60;;;28.60;42.90;;;;;;5073042;28;20487;-80
2023/05/04 12:45:33;;;;;;;6.22;2.90;;;28.80;42.60;;;;;;5072960;28;20108;-79
2023/05/04 12:47:59;;;;;;;4.47;2.88;;;29.00;42.20;;;;;;5071726;28;20120;-81